Time;durP1;ratioP1;P1;durP2;ratioP2;P2;SDS_P1;SDS_P2;PMS_P1;PMS_P2;Temp;Humidity;BMP_temperature;BMP_pressure;BME280_temperature;BME280_humidity;BME280_pressure;Samples;Min_cycle;Max_cycle;Signal;HPM_P1;HPM_P2
2022/03/03 00:01:49;;;;;;;78.55;41.42;;;3.20;99.90;;;;;;5035266;28;20030;-70
2022/03/03 00:04:15;;;;;;;85.05;41.72;;;3.20;99.90;;;;;;5035350;28;20556;-71
2022/03/03 00:06:40;;;;;;;77.28;39.70;;;3.20;99.90;;;;;;5034995;28;20033;-71
2022/03/03 00:09:06;;;;;;;78.00;40.38;;;3.20;99.90;;;;;;5035215;28;20398;-71
2022/03/03 00:11:32;;;;;;;80.18;40.35;;;3.10;99.90;;;;;;5035148;28;20522;-71
2022/03/03 00:13:58;;;;;;;73.03;40.47;;;3.10;99.90;;;;;;5034959;28;20047;-70
2022/03/03 00:16:25;;;;;;;73.40;41.78;;;3.10;99.90;;;;;;5034981;28;20045;-70
2022/03/03 00:18:51;;;;;;;81.13;40.42;;;3.10;99.90;;;;;;5035000;28;20052;-71
2022/03/03 00:21:17;;;;;;;73.68;38.60;;;3.10;99.90;;;;;;5033660;28;20041;-71
2022/03/03 00:23:42;;;;;;;74.80;38.45;;;3.00;99.90;;;;;;5033579;28;20136;-71
2022/03/03 00:26:08;;;;;;;77.80;41.05;;;3.00;99.90;;;;;;5034576;28;20452;-70
2022/03/03 00:28:33;;;;;;;90.35;41.97;;;3.00;99.90;;;;;;5034695;28;20041;-70
2022/03/03 00:30:59;;;;;;;78.85;39.90;;;2.90;99.90;;;;;;5034630;28;20080;-71
2022/03/03 00:33:25;;;;;;;75.65;40.35;;;2.90;99.90;;;;;;5034893;28;20092;-71
2022/03/03 00:35:50;;;;;;;79.18;41.97;;;2.90;99.90;;;;;;5034472;28;20490;-71
2022/03/03 00:38:16;;;;;;;80.38;41.08;;;2.90;99.90;;;;;;5034479;28;20188;-71
2022/03/03 00:40:42;;;;;;;75.10;39.80;;;2.80;99.90;;;;;;5034368;28;20045;-70
2022/03/03 00:43:08;;;;;;;83.65;41.45;;;2.80;99.90;;;;;;5034443;28;20109;-70
2022/03/03 00:45:34;;;;;;;72.60;38.33;;;2.80;99.90;;;;;;5034409;28;20483;-70
2022/03/03 00:48:00;;;;;;;73.95;37.72;;;2.70;99.90;;;;;;5034624;28;20037;-70
2022/03/03 00:50:26;;;;;;;77.68;39.95;;;2.70;99.90;;;;;;5034422;28;20041;-71
2022/03/03 00:52:52;;;;;;;71.15;38.65;;;2.70;99.90;;;;;;5034436;28;20449;-71
2022/03/03 00:55:17;;;;;;;79.35;42.72;;;2.60;99.90;;;;;;5034021;28;20099;-71
2022/03/03 00:57:43;;;;;;;74.65;37.10;;;2.60;99.90;;;;;;5034010;28;20087;-70
2022/03/03 01:00:09;;;;;;;74.57;39.50;;;2.60;99.90;;;;;;5033951;28;20091;-70
2022/03/03 01:02:35;;;;;;;78.63;41.20;;;2.60;99.90;;;;;;5033356;28;20120;-70
2022/03/03 01:05:02;;;;;;;77.43;38.50;;;2.60;99.90;;;;;;5034068;28;20044;-71
2022/03/03 01:07:28;;;;;;;67.85;37.67;;;2.50;99.90;;;;;;5033829;28;20041;-70
2022/03/03 01:09:54;;;;;;;74.82;39.22;;;2.60;99.90;;;;;;5032704;28;20049;-71
2022/03/03 01:12:19;;;;;;;71.07;38.22;;;2.60;99.90;;;;;;5033824;28;20083;-70
2022/03/03 01:14:45;;;;;;;71.30;37.50;;;2.60;99.90;;;;;;5034047;28;20564;-71
2022/03/03 01:17:11;;;;;;;77.43;38.80;;;2.50;99.90;;;;;;5033689;28;20044;-70
2022/03/03 01:19:36;;;;;;;70.18;37.25;;;2.50;99.90;;;;;;5032315;28;20046;-71
2022/03/03 01:22:02;;;;;;;74.97;38.97;;;2.50;99.90;;;;;;5033612;28;20491;-71
2022/03/03 01:24:28;;;;;;;73.13;38.92;;;2.50;99.90;;;;;;5033668;28;20030;-71
2022/03/03 01:26:53;;;;;;;73.25;37.97;;;2.50;99.90;;;;;;5032170;28;20048;-70
2022/03/03 01:29:19;;;;;;;70.18;38.78;;;2.50;99.90;;;;;;5033728;28;20518;-70
2022/03/03 01:31:45;;;;;;;74.20;38.20;;;2.50;99.90;;;;;;5033579;28;20387;-70
2022/03/03 01:34:12;;;;;;;75.70;39.15;;;2.50;99.90;;;;;;5033617;28;20045;-70
2022/03/03 01:36:37;;;;;;;70.65;39.10;;;2.50;99.90;;;;;;5033189;28;20135;-70
2022/03/03 01:39:03;;;;;;;70.93;35.13;;;2.40;99.90;;;;;;5033305;28;20093;-71
2022/03/03 01:41:29;;;;;;;72.50;37.55;;;2.50;99.90;;;;;;5032104;28;20044;-71
2022/03/03 01:43:54;;;;;;;72.15;36.90;;;2.50;99.90;;;;;;5033616;28;20033;-70
2022/03/03 01:46:20;;;;;;;75.32;37.20;;;2.50;99.90;;;;;;5033147;28;20042;-70
2022/03/03 01:48:46;;;;;;;67.40;37.30;;;2.50;99.90;;;;;;5033398;28;20044;-70
2022/03/03 01:51:12;;;;;;;70.75;37.17;;;2.50;99.90;;;;;;5033218;28;20045;-71
2022/03/03 01:53:38;;;;;;;73.95;37.20;;;2.30;99.90;;;;;;5033174;28;20044;-70
2022/03/03 01:56:05;;;;;;;67.63;36.70;;;2.40;99.90;;;;;;5032769;28;20080;-70
2022/03/03 01:58:31;;;;;;;68.05;35.95;;;2.40;99.90;;;;;;5033266;28;20579;-70
2022/03/03 02:00:57;;;;;;;68.03;35.28;;;2.40;99.90;;;;;;5033150;28;20029;-70
2022/03/03 02:03:22;;;;;;;68.57;35.38;;;2.40;99.90;;;;;;5033138;28;20121;-70
2022/03/03 02:05:48;;;;;;;66.93;34.67;;;2.40;99.90;;;;;;5032653;28;20553;-70
2022/03/03 02:08:13;;;;;;;65.65;35.92;;;2.40;99.90;;;;;;5032875;28;20041;-70
2022/03/03 02:10:39;;;;;;;74.65;38.13;;;2.40;99.90;;;;;;5032764;28;20453;-70
2022/03/03 02:13:06;;;;;;;71.28;37.75;;;2.40;99.90;;;;;;5032807;28;20037;-71
2022/03/03 02:15:32;;;;;;;64.40;35.67;;;2.40;99.90;;;;;;5032645;28;20107;-70
2022/03/03 02:17:57;;;;;;;58.45;34.08;;;2.40;99.90;;;;;;5032752;28;20038;-70
2022/03/03 02:20:25;;;;;;;67.82;34.92;;;2.40;99.90;;;;;;5032722;28;20034;-70
2022/03/03 02:22:52;;;;;;;71.50;37.17;;;2.40;99.90;;;;;;5032680;28;20487;-71
2022/03/03 02:25:18;;;;;;;69.80;35.92;;;2.30;99.90;;;;;;5032275;28;20033;-71
2022/03/03 02:27:45;;;;;;;64.50;34.85;;;2.30;99.90;;;;;;5032610;28;20033;-70
2022/03/03 02:30:12;;;;;;;67.13;36.60;;;2.30;99.90;;;;;;5031188;28;20048;-70
2022/03/03 02:32:38;;;;;;;62.63;36.33;;;2.20;99.90;;;;;;5032520;28;20113;-70
2022/03/03 02:35:05;;;;;;;65.30;35.40;;;2.20;99.90;;;;;;5032445;28;20029;-70
2022/03/03 02:37:36;;;;;;;64.57;34.45;;;2.20;99.90;;;;;;5032155;28;20037;-70
2022/03/03 02:42:28;;;;;;;63.33;33.78;;;2.10;99.90;;;;;;5074439;22;20136;-77
2022/03/03 02:44:54;;;;;;;61.17;33.80;;;2.20;99.90;;;;;;5052084;28;20132;-77
2022/03/03 02:47:19;;;;;;;65.35;34.80;;;2.20;99.90;;;;;;5050819;28;20064;-77
2022/03/03 02:49:45;;;;;;;67.82;35.05;;;2.20;99.90;;;;;;5049461;28;20040;-77
2022/03/03 02:52:10;;;;;;;65.78;35.58;;;2.20;99.90;;;;;;5050817;28;20037;-77
2022/03/03 02:54:36;;;;;;;64.35;35.03;;;2.20;99.90;;;;;;5050877;28;20234;-77
2022/03/03 02:59:45;;;;;;;67.43;33.95;;;2.20;99.90;;;;;;5050505;28;20080;-77
2022/03/03 03:02:11;;;;;;;67.38;36.63;;;2.20;99.90;;;;;;5050559;28;20041;-77
2022/03/03 03:04:37;;;;;;;64.35;35.35;;;2.20;99.90;;;;;;5050338;28;20099;-77
2022/03/03 03:07:03;;;;;;;64.90;35.40;;;2.10;99.90;;;;;;5033571;28;20037;-77
2022/03/03 03:09:29;;;;;;;77.32;38.58;;;2.10;99.90;;;;;;5050667;28;20448;-77
2022/03/03 03:11:54;;;;;;;67.40;36.00;;;2.10;99.90;;;;;;5050354;28;20037;-77
2022/03/03 03:14:20;;;;;;;63.83;34.42;;;2.10;99.90;;;;;;5050698;28;20040;-77
2022/03/03 03:16:45;;;;;;;69.13;35.28;;;2.00;99.90;;;;;;5050275;28;20090;-77
2022/03/03 03:19:11;;;;;;;64.75;35.13;;;2.00;99.90;;;;;;5033676;28;20045;-77
2022/03/03 03:21:37;;;;;;;67.15;35.97;;;2.00;99.90;;;;;;5050213;28;20033;-77
2022/03/03 03:24:02;;;;;;;66.32;35.90;;;1.90;99.90;;;;;;5050918;28;20413;-77
2022/03/03 03:26:28;;;;;;;67.57;36.25;;;1.90;99.90;;;;;;5056583;28;20445;-77
2022/03/03 03:28:53;;;;;;;65.47;35.33;;;1.90;99.90;;;;;;5056965;28;20127;-77
2022/03/03 03:31:19;;;;;;;69.68;36.78;;;1.90;99.90;;;;;;5056782;28;20507;-77
2022/03/03 03:33:45;;;;;;;69.53;36.47;;;1.90;99.90;;;;;;5040292;28;20037;-77
2022/03/03 03:36:10;;;;;;;67.57;36.10;;;1.80;99.90;;;;;;5056473;28;20175;-77
2022/03/03 03:38:36;;;;;;;71.00;37.67;;;1.80;99.90;;;;;;5056658;28;20410;-77
2022/03/03 03:41:02;;;;;;;64.55;33.75;;;1.80;99.90;;;;;;5056980;28;20076;-77
2022/03/03 03:43:28;;;;;;;65.53;36.08;;;1.70;99.90;;;;;;5056830;28;20186;-77
2022/03/03 03:45:53;;;;;;;67.25;35.30;;;1.70;99.90;;;;;;5056452;28;20504;-77
2022/03/03 03:48:19;;;;;;;64.80;35.35;;;1.70;99.90;;;;;;5040215;28;20040;-77
2022/03/03 03:50:44;;;;;;;62.92;35.78;;;1.70;99.90;;;;;;5056627;28;20041;-77
2022/03/03 03:53:10;;;;;;;68.47;36.67;;;1.70;99.90;;;;;;5056629;28;20063;-77
2022/03/03 03:55:36;;;;;;;70.97;35.80;;;1.60;99.90;;;;;;5056596;28;20040;-77
2022/03/03 03:58:02;;;;;;;65.15;34.25;;;1.70;99.90;;;;;;5056602;28;20041;-77
2022/03/03 04:00:28;;;;;;;65.82;36.15;;;1.60;99.90;;;;;;5039935;28;20124;-77
2022/03/03 04:02:54;;;;;;;65.03;35.63;;;1.60;99.90;;;;;;5040251;28;20076;-77
2022/03/03 04:05:19;;;;;;;63.65;35.13;;;1.60;99.90;;;;;;5056394;28;20033;-77
2022/03/03 04:07:45;;;;;;;62.05;34.90;;;1.70;99.90;;;;;;5056569;28;20052;-77
2022/03/03 04:10:11;;;;;;;61.22;33.85;;;1.60;99.90;;;;;;5056615;28;20413;-77
2022/03/03 04:12:38;;;;;;;64.43;34.38;;;1.60;99.90;;;;;;5056597;28;20087;-77
2022/03/03 04:15:04;;;;;;;64.57;33.17;;;1.60;99.90;;;;;;5056500;28;20037;-77
2022/03/03 04:17:30;;;;;;;69.15;33.38;;;1.50;99.90;;;;;;5056342;28;20032;-77
2022/03/03 04:19:56;;;;;;;66.05;34.33;;;1.50;99.90;;;;;;5056334;28;20155;-77
2022/03/03 04:22:21;;;;;;;57.33;33.38;;;1.50;99.90;;;;;;5039914;28;20052;-77
2022/03/03 04:24:47;;;;;;;60.05;33.35;;;1.50;99.90;;;;;;5056399;28;20568;-77
2022/03/03 04:27:13;;;;;;;53.88;31.95;;;1.50;99.90;;;;;;5056058;28;20036;-77
2022/03/03 04:29:38;;;;;;;57.40;31.58;;;1.40;99.90;;;;;;5039801;28;20037;-77
2022/03/03 04:32:05;;;;;;;60.53;33.67;;;1.40;99.90;;;;;;5056258;28;20037;-77
2022/03/03 04:34:30;;;;;;;58.15;32.63;;;1.50;99.90;;;;;;5039574;28;20040;-77
2022/03/03 04:36:56;;;;;;;58.65;31.52;;;1.50;99.90;;;;;;5052447;28;20584;-77
2022/03/03 04:39:22;;;;;;;55.08;30.90;;;1.60;99.90;;;;;;5054491;28;20055;-77
2022/03/03 04:41:50;;;;;;;57.38;32.67;;;1.50;99.90;;;;;;5054195;28;20401;-77
2022/03/03 04:44:16;;;;;;;51.55;30.75;;;1.60;99.90;;;;;;5054414;28;20072;-77
2022/03/03 04:46:41;;;;;;;60.95;32.55;;;1.60;99.90;;;;;;5053009;28;20130;-77
2022/03/03 04:49:07;;;;;;;54.60;31.92;;;1.70;99.90;;;;;;5052868;28;20080;-77
2022/03/03 04:51:36;;;;;;;61.05;32.75;;;1.70;99.90;;;;;;5054069;28;20094;-77
2022/03/03 04:54:03;;;;;;;58.20;33.88;;;1.60;99.90;;;;;;5036212;28;20509;-77
2022/03/03 04:56:29;;;;;;;63.42;34.65;;;1.60;99.90;;;;;;5035928;28;20037;-77
2022/03/03 04:58:54;;;;;;;59.42;31.70;;;1.60;99.90;;;;;;5052740;28;20094;-77
2022/03/03 05:01:20;;;;;;;57.88;33.50;;;1.40;99.90;;;;;;5052652;28;20037;-77
2022/03/03 05:03:45;;;;;;;65.25;35.40;;;1.40;99.90;;;;;;5052614;28;20036;-77
2022/03/03 05:06:11;;;;;;;56.60;32.58;;;1.50;99.90;;;;;;5052216;28;20525;-77
2022/03/03 05:08:36;;;;;;;57.70;30.17;;;1.40;99.90;;;;;;5052809;28;20107;-77
2022/03/03 05:11:02;;;;;;;58.05;33.35;;;1.40;99.90;;;;;;5052462;28;20494;-77
2022/03/03 05:13:29;;;;;;;54.17;31.42;;;1.40;99.90;;;;;;5052541;28;20041;-77
2022/03/03 05:15:54;;;;;;;54.05;31.58;;;1.40;99.90;;;;;;5052161;28;20495;-77
2022/03/03 05:18:20;;;;;;;58.70;31.50;;;1.40;99.90;;;;;;5053522;28;20041;-77
2022/03/03 05:20:46;;;;;;;51.72;29.00;;;1.30;99.90;;;;;;5052122;28;20037;-77
2022/03/03 05:23:11;;;;;;;66.47;33.58;;;1.30;99.90;;;;;;5052511;28;20037;-77
2022/03/03 05:25:37;;;;;;;57.97;31.67;;;1.30;99.90;;;;;;5052214;28;20048;-77
2022/03/03 05:28:03;;;;;;;57.40;31.85;;;1.30;99.90;;;;;;5052226;28;20076;-77
2022/03/03 05:30:29;;;;;;;58.30;31.48;;;1.30;99.90;;;;;;5035453;28;20033;-78
2022/03/03 05:32:54;;;;;;;57.45;31.45;;;1.30;99.90;;;;;;5052042;28;20033;-78
2022/03/03 05:35:21;;;;;;;59.50;34.40;;;1.30;99.90;;;;;;5051864;28;20564;-77
2022/03/03 05:37:47;;;;;;;57.45;32.35;;;1.40;99.90;;;;;;5052103;28;20098;-77
2022/03/03 05:40:14;;;;;;;55.47;31.98;;;1.40;99.90;;;;;;5051710;28;20053;-77
2022/03/03 05:42:39;;;;;;;58.58;32.42;;;1.40;99.90;;;;;;5052175;28;20040;-77
2022/03/03 05:45:06;;;;;;;56.05;31.27;;;1.30;99.90;;;;;;5051827;28;20033;-78
2022/03/03 05:47:33;;;;;;;56.05;31.73;;;1.30;99.90;;;;;;5051166;28;20037;-78
2022/03/03 05:49:59;;;;;;;53.97;29.98;;;1.30;99.90;;;;;;5052081;28;20048;-77
2022/03/03 05:52:25;;;;;;;56.13;31.88;;;1.30;99.90;;;;;;5051699;28;20078;-78
2022/03/03 05:54:51;;;;;;;58.15;30.98;;;1.30;99.90;;;;;;5035137;28;20079;-78
2022/03/03 05:57:25;;;;;;;52.70;31.48;;;1.30;99.90;;;;;;5051621;28;20044;-78
2022/03/03 05:59:51;;;;;;;54.78;29.85;;;1.20;99.90;;;;;;5035069;28;20102;-77
2022/03/03 06:02:19;;;;;;;60.40;32.47;;;1.10;99.90;;;;;;5051347;28;20045;-77
2022/03/03 06:04:49;;;;;;;56.53;31.35;;;1.20;99.90;;;;;;5051858;28;20064;-78
2022/03/03 06:07:25;;;;;;;67.97;32.35;;;1.20;99.90;;;;;;5051233;28;20037;-77
2022/03/03 06:09:56;;;;;;;55.22;31.20;;;1.20;99.90;;;;;;5051567;28;20045;-78
2022/03/03 06:12:25;;;;;;;54.92;30.33;;;1.20;99.90;;;;;;5051388;28;20049;-77
2022/03/03 06:15:00;;;;;;;53.80;29.40;;;1.20;99.90;;;;;;5034951;28;20045;-78
2022/03/03 06:17:25;;;;;;;57.65;31.13;;;1.20;99.90;;;;;;5034697;28;20106;-78
2022/03/03 06:19:52;;;;;;;59.22;32.97;;;1.10;99.90;;;;;;5051212;28;20522;-77
2022/03/03 06:22:19;;;;;;;56.17;31.42;;;1.20;99.90;;;;;;5051089;28;20501;-78
2022/03/03 06:24:44;;;;;;;54.17;30.05;;;1.20;99.90;;;;;;5051483;28;20037;-78
2022/03/03 06:27:11;;;;;;;57.33;32.78;;;1.20;99.90;;;;;;5034235;28;20048;-77
2022/03/03 06:29:38;;;;;;;54.67;31.27;;;1.20;99.90;;;;;;5051249;28;20087;-77
2022/03/03 06:32:05;;;;;;;61.17;33.78;;;1.10;99.90;;;;;;5052175;28;20435;-78
2022/03/03 06:34:30;;;;;;;59.47;31.95;;;1.10;99.90;;;;;;5050981;28;20379;-78
2022/03/03 06:36:56;;;;;;;58.13;32.55;;;1.10;99.90;;;;;;5050648;28;20044;-73
2022/03/03 06:39:22;;;;;;;59.85;33.42;;;1.10;99.90;;;;;;5050876;28;20116;-78
2022/03/03 06:41:48;;;;;;;66.05;31.58;;;1.00;99.90;;;;;;5050972;28;20057;-78
2022/03/03 06:44:14;;;;;;;61.67;32.83;;;1.10;99.90;;;;;;5050776;28;20041;-78
2022/03/03 06:46:40;;;;;;;59.63;33.08;;;1.10;99.90;;;;;;5050448;28;20036;-78
2022/03/03 06:49:05;;;;;;;64.30;34.05;;;1.10;99.90;;;;;;5050743;28;20041;-78
2022/03/03 06:51:40;;;;;;;60.17;35.42;;;1.10;99.90;;;;;;5050864;28;20090;-78
2022/03/03 06:54:06;;;;;;;67.00;33.97;;;1.10;99.90;;;;;;5050778;28;20041;-78
2022/03/03 06:56:35;;;;;;;66.50;36.30;;;1.20;99.90;;;;;;5050342;28;20102;-78
2022/03/03 06:59:01;;;;;;;62.22;34.65;;;1.30;99.90;;;;;;5050074;28;20075;-78
2022/03/03 07:01:28;;;;;;;70.82;36.72;;;1.30;99.90;;;;;;5033710;28;20475;-78
2022/03/03 07:03:57;;;;;;;57.55;33.80;;;1.30;99.90;;;;;;5050528;28;20029;-78
2022/03/03 07:06:23;;;;;;;66.45;35.90;;;1.40;99.90;;;;;;5050457;28;20036;-78
2022/03/03 07:08:53;;;;;;;62.55;34.15;;;1.50;99.90;;;;;;5050474;28;20045;-78
2022/03/03 07:11:18;;;;;;;63.50;34.65;;;1.60;99.90;;;;;;5051589;28;20452;-78
2022/03/03 07:13:46;;;;;;;61.78;35.10;;;1.70;99.90;;;;;;5050373;28;20132;-78
2022/03/03 07:16:36;;;;;;;63.38;35.78;;;1.80;99.90;;;;;;5033653;28;20126;-77
2022/03/03 07:19:04;;;;;;;63.33;35.05;;;1.90;99.90;;;;;;5050272;28;20410;-78
2022/03/03 07:21:57;;;;;;;62.70;32.25;;;2.00;99.90;;;;;;5050167;28;20513;-78
2022/03/03 07:24:33;;;;;;;64.38;34.38;;;2.20;99.90;;;;;;5051627;28;20037;-77
2022/03/03 07:27:04;;;;;;;61.90;34.72;;;2.30;99.90;;;;;;5050219;28;20063;-75
2022/03/03 07:29:34;;;;;;;60.88;36.40;;;2.40;99.90;;;;;;5050537;28;20537;-75
2022/03/03 07:32:05;;;;;;;56.47;33.15;;;2.50;99.90;;;;;;5050083;28;20040;-74
2022/03/03 07:34:38;;;;;;;61.53;33.33;;;2.60;99.90;;;;;;5050256;28;20051;-75
2022/03/03 07:37:15;;;;;;;62.43;33.67;;;2.80;99.90;;;;;;5049996;28;20049;-75
2022/03/03 07:39:42;;;;;;;64.55;33.22;;;2.80;99.90;;;;;;5050128;28;20119;-75
2022/03/03 07:42:17;;;;;;;63.78;36.35;;;3.00;99.90;;;;;;5050252;28;20063;-75
2022/03/03 07:44:43;;;;;;;61.10;33.78;;;3.20;99.90;;;;;;5050120;28;20033;-74
2022/03/03 07:47:09;;;;;;;63.20;35.20;;;3.30;99.90;;;;;;5049742;28;20041;-75
2022/03/03 07:49:35;;;;;;;62.65;32.75;;;3.30;99.90;;;;;;5050105;28;20076;-75
2022/03/03 07:52:05;;;;;;;62.40;34.67;;;3.50;99.90;;;;;;5049965;28;20073;-75
2022/03/03 07:54:32;;;;;;;63.53;32.72;;;3.50;99.90;;;;;;5050096;28;20049;-75
2022/03/03 07:56:59;;;;;;;57.67;32.13;;;3.60;99.90;;;;;;5049881;28;20053;-75
2022/03/03 07:59:29;;;;;;;60.47;34.75;;;3.60;99.90;;;;;;5050101;28;20041;-75
2022/03/03 08:01:57;;;;;;;61.08;31.35;;;3.80;99.90;;;;;;5050364;28;20107;-75
2022/03/03 08:04:28;;;;;;;55.53;31.98;;;3.90;99.90;;;;;;5049981;28;20032;-75
2022/03/03 08:06:58;;;;;;;58.90;32.47;;;3.90;99.90;;;;;;5051298;28;20041;-75
2022/03/03 08:09:26;;;;;;;57.90;33.10;;;4.10;99.90;;;;;;5049875;28;20045;-75
2022/03/03 08:11:53;;;;;;;55.80;33.13;;;4.10;99.90;;;;;;5052733;28;20055;-75
2022/03/03 08:14:20;;;;;;;59.28;32.13;;;4.20;99.90;;;;;;5053023;28;20037;-75
2022/03/03 08:16:46;;;;;;;57.15;31.83;;;4.40;99.90;;;;;;5037179;28;20055;-72
2022/03/03 08:19:14;;;;;;;54.90;31.77;;;4.40;99.90;;;;;;5054840;28;20037;-75
2022/03/03 08:21:43;;;;;;;49.70;29.88;;;4.40;99.90;;;;;;5053256;28;20166;-71
2022/03/03 08:24:11;;;;;;;54.53;30.27;;;4.40;99.90;;;;;;5053536;28;20045;-70
2022/03/03 08:26:38;;;;;;;53.65;31.25;;;4.50;99.90;;;;;;5054541;28;20096;-71
2022/03/03 08:29:04;;;;;;;57.05;29.70;;;4.50;99.90;;;;;;5053387;28;20041;-71
2022/03/03 08:31:37;;;;;;;52.08;30.42;;;4.60;99.90;;;;;;5054215;28;20051;-71
2022/03/03 08:34:12;;;;;;;51.03;30.40;;;4.70;99.90;;;;;;5054635;28;20037;-71
2022/03/03 08:36:48;;;;;;;53.75;28.50;;;4.80;99.90;;;;;;5052943;28;20072;-71
2022/03/03 08:39:16;;;;;;;46.20;28.05;;;4.90;99.90;;;;;;5053145;28;20505;-71
2022/03/03 08:41:43;;;;;;;43.63;27.40;;;5.10;99.90;;;;;;5084022;22;20129;-72
2022/03/03 08:44:10;;;;;;;45.58;28.02;;;5.20;99.70;;;;;;5073115;28;20037;-72
2022/03/03 08:46:39;;;;;;;49.60;29.40;;;5.20;98.70;;;;;;5073100;28;20401;-72
2022/03/03 08:49:10;;;;;;;45.25;28.42;;;5.30;97.90;;;;;;5071501;28;20071;-71
2022/03/03 08:51:37;;;;;;;46.08;27.42;;;5.30;97.00;;;;;;5072912;28;20048;-72
2022/03/03 08:54:03;;;;;;;41.38;25.55;;;5.30;96.70;;;;;;5073075;28;20049;-72
2022/03/03 08:56:29;;;;;;;47.55;26.83;;;5.40;96.40;;;;;;5072807;28;20409;-73
2022/03/03 08:58:57;;;;;;;43.80;26.83;;;5.40;95.90;;;;;;5073994;28;20036;-72
2022/03/03 09:01:23;;;;;;;39.30;26.15;;;5.30;95.40;;;;;;5073964;28;20041;-72
2022/03/03 09:03:48;;;;;;;44.30;26.20;;;5.30;95.70;;;;;;5074354;28;20037;-72
2022/03/03 09:06:15;;;;;;;43.45;26.65;;;5.40;95.30;;;;;;5074160;28;20067;-71
2022/03/03 09:08:41;;;;;;;43.13;26.83;;;5.40;95.20;;;;;;5073143;28;20037;-72
2022/03/03 09:11:07;;;;;;;48.42;29.58;;;5.40;95.30;;;;;;5073974;28;20028;-72
2022/03/03 09:13:33;;;;;;;43.25;24.30;;;5.40;94.50;;;;;;5072656;28;20044;-72
2022/03/03 09:15:59;;;;;;;40.85;25.08;;;5.40;94.10;;;;;;5073444;28;20081;-72
2022/03/03 09:18:25;;;;;;;43.65;25.38;;;5.30;93.50;;;;;;5074071;28;20557;-71
2022/03/03 09:20:50;;;;;;;44.50;26.90;;;5.30;93.30;;;;;;5072746;28;20044;-72
2022/03/03 09:23:16;;;;;;;41.70;26.58;;;5.40;93.40;;;;;;5073121;28;20408;-72
2022/03/03 09:25:43;;;;;;;45.33;26.58;;;5.40;92.90;;;;;;5072366;28;20386;-72
2022/03/03 09:28:09;;;;;;;42.38;26.00;;;5.40;93.30;;;;;;5073509;28;20485;-72
2022/03/03 09:30:35;;;;;;;43.55;26.00;;;5.50;93.50;;;;;;5071834;28;20120;-72
2022/03/03 09:33:00;;;;;;;43.03;26.02;;;5.50;94.00;;;;;;5073994;28;20082;-73
2022/03/03 09:35:26;;;;;;;40.75;26.67;;;5.50;94.40;;;;;;5073473;28;20505;-73
2022/03/03 09:37:53;;;;;;;48.83;24.50;;;5.60;94.20;;;;;;5070416;28;20068;-72
2022/03/03 09:40:18;;;;;;;42.17;24.60;;;5.70;93.60;;;;;;5085014;28;20100;-72
2022/03/03 09:43:00;;;;;;;42.97;25.70;;;5.70;93.10;;;;;;5092182;28;20492;-72
2022/03/03 09:45:27;;;;;;;39.97;24.67;;;5.80;91.80;;;;;;5093823;28;20036;-71
2022/03/03 09:47:54;;;;;;;43.40;23.48;;;5.80;92.10;;;;;;5087295;28;20541;-72
2022/03/03 09:50:22;;;;;;;35.17;22.52;;;5.90;92.50;;;;;;5077226;28;20040;-71
2022/03/03 09:52:48;;;;;;;38.72;24.35;;;6.00;91.80;;;;;;5093145;28;20123;-71
2022/03/03 09:55:14;;;;;;;38.22;23.80;;;5.90;92.10;;;;;;5092170;28;20124;-72
2022/03/03 09:57:39;;;;;;;40.67;24.73;;;6.00;92.10;;;;;;5093221;28;20058;-71
2022/03/03 10:00:08;;;;;;;43.03;25.98;;;6.10;92.50;;;;;;5093253;28;20123;-71
2022/03/03 10:02:56;;;;;;;35.33;23.67;;;6.20;92.80;;;;;;5093229;28;20408;-72
2022/03/03 10:05:29;;;;;;;36.83;22.67;;;6.30;92.30;;;;;;5085846;28;20024;-73
2022/03/03 10:08:10;;;;;;;41.90;24.93;;;6.30;92.60;;;;;;5089899;28;20043;-72
2022/03/03 10:10:42;;;;;;;35.38;22.80;;;6.40;92.10;;;;;;5093341;28;20366;-73
2022/03/03 10:13:09;;;;;;;36.72;22.60;;;6.50;92.30;;;;;;5093734;28;20036;-71
2022/03/03 10:15:35;;;;;;;38.25;23.35;;;6.60;91.40;;;;;;5092721;28;20396;-74
2022/03/03 10:18:01;;;;;;;35.53;22.42;;;6.70;91.40;;;;;;5093034;28;20054;-72
2022/03/03 10:20:28;;;;;;;34.40;21.38;;;6.80;90.50;;;;;;5092073;28;20052;-72
2022/03/03 10:22:58;;;;;;;28.98;19.85;;;6.80;87.90;;;;;;5091738;28;20104;-72
2022/03/03 10:25:35;;;;;;;33.53;22.10;;;6.80;86.20;;;;;;5092996;28;20069;-72
2022/03/03 10:28:11;;;;;;;36.45;21.15;;;6.90;83.70;;;;;;5093317;28;20518;-72
2022/03/03 10:31:10;;;;;;;32.45;19.92;;;6.90;82.10;;;;;;5084802;28;20040;-73
2022/03/03 10:33:38;;;;;;;31.02;19.25;;;6.90;81.10;;;;;;5065739;28;20090;-73
2022/03/03 10:36:11;;;;;;;32.42;21.83;;;7.00;80.80;;;;;;5071000;28;20723;-72
2022/03/03 10:38:58;;;;;;;29.70;19.17;;;7.00;78.90;;;;;;5070884;28;20493;-73
2022/03/03 10:41:40;;;;;;;29.30;18.65;;;7.00;78.70;;;;;;5071947;28;20063;-72
2022/03/03 10:44:15;;;;;;;30.30;20.60;;;7.00;78.10;;;;;;5072317;28;20401;-72
2022/03/03 10:47:03;;;;;;;27.65;18.35;;;7.00;76.80;;;;;;5071806;28;20129;-72
2022/03/03 10:49:29;;;;;;;26.63;18.83;;;7.10;74.30;;;;;;5072195;28;20064;-72
2022/03/03 10:52:07;;;;;;;29.70;19.45;;;7.20;75.10;;;;;;5070731;28;20429;-72
2022/03/03 10:54:33;;;;;;;27.67;18.55;;;7.30;74.50;;;;;;5071285;28;20048;-72
2022/03/03 10:56:58;;;;;;;28.30;19.05;;;7.40;75.70;;;;;;5072018;28;20052;-73
2022/03/03 10:59:25;;;;;;;27.13;18.45;;;7.40;75.60;;;;;;5070741;28;20040;-71
2022/03/03 11:01:52;;;;;;;28.40;19.05;;;7.50;74.60;;;;;;5072025;28;20445;-72
2022/03/03 11:04:20;;;;;;;29.98;19.90;;;7.60;74.80;;;;;;5070218;28;20040;-71
2022/03/03 11:06:52;;;;;;;30.13;19.80;;;7.60;73.50;;;;;;5071290;28;20468;-72
2022/03/03 11:09:18;;;;;;;27.58;19.50;;;7.60;74.50;;;;;;5071643;28;20047;-73
2022/03/03 11:11:45;;;;;;;32.92;20.67;;;7.70;73.60;;;;;;5071368;28;20072;-73
2022/03/03 11:14:11;;;;;;;34.30;20.60;;;7.60;73.40;;;;;;5071802;28;20076;-72
2022/03/03 11:16:37;;;;;;;29.90;18.70;;;7.70;73.60;;;;;;5071493;28;20079;-72
2022/03/03 11:19:03;;;;;;;32.35;19.83;;;7.70;73.60;;;;;;5069789;28;20072;-72
2022/03/03 11:21:29;;;;;;;30.02;21.13;;;7.80;73.70;;;;;;5070184;28;20043;-71
2022/03/03 11:23:59;;;;;;;32.30;20.85;;;7.80;73.60;;;;;;5071543;28;20103;-72
2022/03/03 11:26:39;;;;;;;34.85;20.73;;;7.80;73.50;;;;;;5071213;28;20028;-73
2022/03/03 11:29:15;;;;;;;30.30;20.02;;;7.80;73.40;;;;;;5053705;28;20036;-72
2022/03/03 11:31:42;;;;;;;29.42;20.48;;;7.90;74.50;;;;;;5071462;28;20044;-72
2022/03/03 11:34:38;;;;;;;30.67;21.40;;;7.90;73.10;;;;;;5071320;28;20093;-72
2022/03/03 11:37:17;;;;;;;31.58;20.20;;;8.00;72.80;;;;;;5071097;28;20405;-72
2022/03/03 11:40:04;;;;;;;34.25;20.50;;;8.00;73.00;;;;;;5069744;28;20075;-73
2022/03/03 11:42:50;;;;;;;32.78;20.10;;;8.00;73.20;;;;;;5070137;28;20044;-73
2022/03/03 11:45:33;;;;;;;28.45;19.88;;;8.10;72.40;;;;;;5070228;28;20051;-72
2022/03/03 11:48:14;;;;;;;28.15;17.80;;;8.10;70.20;;;;;;5075573;28;20032;-73
2022/03/03 11:50:41;;;;;;;24.33;17.02;;;8.10;68.70;;;;;;5075391;28;20048;-72
2022/03/03 11:53:09;;;;;;;23.70;15.95;;;8.20;67.20;;;;;;5075263;28;20032;-72
2022/03/03 11:55:43;;;;;;;26.35;19.30;;;8.20;65.50;;;;;;5073578;28;20124;-72
2022/03/03 11:58:32;;;;;;;27.67;17.50;;;8.20;65.20;;;;;;5073829;28;20067;-72
2022/03/03 12:00:57;;;;;;;26.15;17.10;;;8.20;65.80;;;;;;5075324;28;20040;-73
2022/03/03 12:03:27;;;;;;;23.70;16.45;;;8.20;65.40;;;;;;5073604;28;20051;-71
2022/03/03 12:06:10;;;;;;;26.73;18.05;;;8.20;65.10;;;;;;5073180;28;20029;-72
2022/03/03 12:08:36;;;;;;;26.10;17.23;;;8.30;64.90;;;;;;5088937;28;20075;-73
2022/03/03 12:11:04;;;;;;;23.33;16.95;;;8.20;65.20;;;;;;5072700;28;20277;-71
2022/03/03 12:13:37;;;;;;;28.15;18.45;;;8.30;66.00;;;;;;5073946;28;20409;-72
2022/03/03 12:16:35;;;;;;;28.48;17.20;;;8.40;66.00;;;;;;5073179;28;20033;-72
2022/03/03 12:19:01;;;;;;;31.88;19.23;;;8.40;66.60;;;;;;5062543;28;20417;-72
2022/03/03 12:21:36;;;;;;;30.08;19.98;;;8.30;67.90;;;;;;5073508;28;20097;-72
2022/03/03 12:24:14;;;;;;;29.88;19.90;;;8.40;69.20;;;;;;5073470;28;20512;-71
2022/03/03 12:26:52;;;;;;;30.92;19.20;;;8.50;69.20;;;;;;5073283;28;20040;-72
2022/03/03 12:29:42;;;;;;;25.15;17.70;;;8.50;69.80;;;;;;5074931;28;20185;-72
2022/03/03 12:32:27;;;;;;;25.88;17.27;;;8.50;67.60;;;;;;5074813;28;20080;-72
2022/03/03 12:35:01;;;;;;;29.55;16.17;;;8.50;66.50;;;;;;5074620;28;20076;-72
2022/03/03 12:37:29;;;;;;;25.55;16.27;;;8.50;67.20;;;;;;5073021;28;20044;-72
2022/03/03 12:39:57;;;;;;;19.63;13.93;;;8.60;66.40;;;;;;5073202;28;20048;-72
2022/03/03 12:42:25;;;;;;;29.67;14.45;;;8.60;66.30;;;;;;5074360;28;20036;-72
2022/03/03 12:45:07;;;;;;;23.13;14.80;;;8.70;64.00;;;;;;5074603;28;20048;-72
2022/03/03 12:47:45;;;;;;;19.23;13.57;;;8.70;64.00;;;;;;5072949;28;20076;-72